Погода Горянена 2 недели

Смоленская область, Россия

24 июля-05 августа
  • 24июля
    Сегодня
    +10°
    +27°
    Практически безоблачно
    ВремяПогодаТемператураВлажностьДавлениеВетер, м/сВероятность осадков
    00:00Ясно и безоблачно+13°C75 %746 мм0.8 м/с2 %
    03:00Практически безоблачно+11°C89 %746 мм0.1 м/с2 %
    06:00Ясно и безоблачно+12°C90 %746 мм0.3 м/с2 %
    09:00Практически безоблачно+19°C72 %747 мм0.9 м/с2 %
    12:00Практически безоблачно+23°C59 %746 мм1.5 м/с11 %
    15:00Практически безоблачно+25°C53 %746 мм1.5 м/с15 %
    18:00Практически безоблачно+26°C54 %745 мм1.2 м/с12 %
    21:00Ясно и безоблачно+19°C75 %745 мм0.1 м/с2 %
  • 25июля
    Четверг
    +12°
    +28°
    Небольшая облачность
    ВремяПогодаТемператураВлажностьДавлениеВетер, м/сВероятность осадков
    00:00Ясно и безоблачно+14°C82 %744 мм0.5 м/с2 %
    03:00Ясно и безоблачно+11°C83 %744 мм0.0 м/с2 %
    06:00Ясно и безоблачно+11°C86 %744 мм0.1 м/с2 %
    09:00Ясно и безоблачно+20°C70 %744 мм0.4 м/с2 %
    12:00Ясно и безоблачно+25°C45 %744 мм1.1 м/с2 %
    15:00Небольшая облачность+28°C39 %743 мм1.2 м/с3 %
    18:00Небольшая облачность+27°C41 %743 мм1.0 м/с5 %
    21:00Ясно и безоблачно+20°C62 %743 мм0.2 м/с3 %
  • 26июля
    Пятница
    +13°
    +28°
    Пасмурно, сплошная облачность
    ВремяПогодаТемператураВлажностьДавлениеВетер, м/сВероятность осадков
    00:00Ясно и безоблачно+15°C77 %743 мм0.6 м/с2 %
    03:00Ясно и безоблачно+13°C81 %744 мм0.0 м/с2 %
    06:00Ясно и безоблачно+13°C87 %744 мм0.0 м/с2 %
    09:00Ясно и безоблачно+21°C65 %745 мм0.3 м/с2 %
    12:00Ясно и безоблачно+26°C51 %745 мм1.1 м/с21 %
    15:00Пасмурно, сплошная облачность+28°C46 %746 мм1.4 м/с26 %
    18:00Практически безоблачно+26°C60 %746 мм0.3 м/с37 %
    21:00Ясно и безоблачно+20°C74 %746 мм0.4 м/с10 %
  • 27июля
    Суббота
    +13°
    +27°
    Ясно и безоблачно
    ВремяПогодаТемператураВлажностьДавлениеВетер, м/сВероятность осадков
    00:00Ясно и безоблачно+15°C90 %747 мм0.6 м/с2 %
    03:00Ясно и безоблачно+13°C91 %747 мм0.3 м/с3 %
    06:00Ясно и безоблачно+13°C91 %747 мм0.3 м/с6 %
    09:00Небольшая облачность+21°C73 %748 мм0.5 м/с3 %
    12:00Ясно и безоблачно+27°C48 %749 мм1.5 м/с13 %
    15:00Ясно и безоблачно+28°C44 %748 мм1.9 м/с28 %
    18:00Практически безоблачно+27°C47 %748 мм1.6 м/с41 %
    21:00Практически безоблачно+21°C73 %748 мм0.3 м/с20 %
Мы используем cookies
Соглашаюсь